createdAt,value
2022-11-06T00:04:02.497Z,27.7
2022-11-06T00:09:08.839Z,27.7
2022-11-06T00:14:14.759Z,27.7
2022-11-06T00:19:21.940Z,27.6
2022-11-06T00:24:28.890Z,27.6
2022-11-06T00:29:55.848Z,27.6
2022-11-06T00:40:22.992Z,27.6
2022-11-06T00:45:44.989Z,27.6
2022-11-06T00:51:08.026Z,27.6
2022-11-06T00:56:29.989Z,27.5
2022-11-06T01:01:53.104Z,27.5
2022-11-06T01:07:16.179Z,27.5
2022-11-06T01:13:04.927Z,27.5
2022-11-06T01:18:26.330Z,27.4
2022-11-06T01:23:49.137Z,27.4
2022-11-06T01:29:53.480Z,27.4
2022-11-06T01:40:06.743Z,27.4
2022-11-06T01:45:48.612Z,27.4
2022-11-06T01:56:48.032Z,27.3
2022-11-06T02:02:11.372Z,27.3
2022-11-06T02:12:40.212Z,27.7
2022-11-06T02:18:17.360Z,28.1
2022-11-06T02:23:53.582Z,28.6
2022-11-06T02:29:15.095Z,29.1
2022-11-06T02:34:37.021Z,29.8
2022-11-06T02:45:36.320Z,31
2022-11-06T02:51:13.322Z,31.7
2022-11-06T02:56:35.393Z,32.4
2022-11-06T03:01:58.123Z,33.1
2022-11-06T03:12:58.288Z,34.5
2022-11-06T03:18:35.952Z,35.3
2022-11-06T03:24:13.173Z,36
2022-11-06T03:34:47.412Z,37.3
2022-11-06T03:40:25.131Z,37.6
2022-11-06T03:46:00.792Z,37.7
2022-11-06T03:51:37.619Z,37.8
2022-11-06T03:57:14.684Z,37.8
2022-11-06T04:02:54.158Z,37.8
2022-11-06T04:08:16.468Z,37.8
2022-11-06T04:13:38.427Z,37.8
2022-11-06T04:24:21.905Z,37.8
2022-11-06T04:29:59.797Z,37.7
2022-11-06T04:35:08.150Z,37.7
2022-11-06T04:40:29.241Z,37.6
2022-11-06T04:51:13.591Z,37.6
2022-11-06T04:57:01.152Z,37.6
2022-11-06T05:08:04.417Z,37.5
2022-11-06T05:13:41.182Z,37.4
2022-11-06T05:19:19.158Z,37.4
2022-11-06T05:24:55.894Z,37.4
2022-11-06T05:30:39.981Z,37.3
2022-11-06T05:36:16.899Z,37.3
2022-11-06T05:41:53.801Z,37.3
2022-11-06T05:47:55.699Z,37.3
2022-11-06T05:53:33.287Z,37.2
2022-11-06T05:58:55.968Z,37.2
2022-11-06T06:04:34.943Z,37.1
2022-11-06T06:10:12.073Z,37.1
2022-11-06T06:15:55.791Z,37.1
2022-11-06T06:21:34.166Z,37.1
2022-11-06T06:27:02.875Z,37
2022-11-06T06:32:41.116Z,37
2022-11-06T06:38:08.495Z,36.9
2022-11-06T06:43:52.587Z,36.9
2022-11-06T06:49:30.613Z,36.8
2022-11-06T06:55:08.321Z,36.8
2022-11-06T07:00:46.832Z,36.8
2022-11-06T07:11:54.902Z,36.7
2022-11-06T07:17:33.063Z,36.7
2022-11-06T07:23:03.665Z,36.6
2022-11-06T07:28:25.939Z,36.6
2022-11-06T07:33:48.844Z,36.6
2022-11-06T07:39:10.835Z,36.5
2022-11-06T07:44:38.522Z,36.5
2022-11-06T07:49:50.831Z,36.4
2022-11-06T07:55:13.905Z,36.4
2022-11-06T08:00:35.517Z,36.4
2022-11-06T08:05:47.439Z,36.3
2022-11-06T08:11:11.032Z,36.3
2022-11-06T08:16:36.637Z,36.3
2022-11-06T08:21:59.731Z,36.3
2022-11-06T08:27:28.980Z,36.3
2022-11-06T08:32:52.351Z,36.2
2022-11-06T08:38:16.713Z,36.1
2022-11-06T08:43:25.300Z,36.1
2022-11-06T08:48:50.785Z,36.1
2022-11-06T08:54:15.923Z,36.1
2022-11-06T09:00:01.549Z,36
2022-11-06T09:05:47.652Z,36
2022-11-06T09:11:31.828Z,35.9
2022-11-06T09:17:01.063Z,35.9
2022-11-06T09:28:32.788Z,35.8
2022-11-06T09:34:03.042Z,35.8
2022-11-06T09:39:41.936Z,35.7
2022-11-06T09:45:59.407Z,35.7
2022-11-06T09:51:39.353Z,35.8
2022-11-06T09:57:28.132Z,35.8
2022-11-06T10:03:13.253Z,35.8
2022-11-06T10:08:52.776Z,35.8
2022-11-06T10:14:30.340Z,35.8
2022-11-06T10:20:08.644Z,35.8
2022-11-06T10:25:48.063Z,35.8
2022-11-06T10:31:26.052Z,35.8
2022-11-06T10:37:06.664Z,35.8
2022-11-06T10:42:44.645Z,35.8
2022-11-06T10:48:24.863Z,35.8
2022-11-06T10:54:04.804Z,35.8
2022-11-06T10:59:47.915Z,35.8
2022-11-06T11:05:31.221Z,35.7
2022-11-06T11:11:04.736Z,35.6
2022-11-06T11:16:33.144Z,35.6
2022-11-06T11:21:55.331Z,35.7
2022-11-06T11:27:21.852Z,35.7
2022-11-06T11:32:46.604Z,35.7
2022-11-06T11:38:15.154Z,35.7
2022-11-06T11:43:38.792Z,35.7
2022-11-06T11:49:21.055Z,35.7
2022-11-06T11:55:05.143Z,35.6
2022-11-06T12:01:15.801Z,35.6
2022-11-06T12:06:58.607Z,35.6
2022-11-06T12:12:20.657Z,35.6
2022-11-06T12:17:43.225Z,35.6
2022-11-06T12:23:28.659Z,35.6
2022-11-06T12:29:06.059Z,35.6
2022-11-06T12:35:12.306Z,35.6
2022-11-06T12:40:56.581Z,35.6
2022-11-06T12:46:33.872Z,35.5
2022-11-06T12:51:57.475Z,35.4
2022-11-06T12:57:20.256Z,35.4
2022-11-06T13:03:00.986Z,35.4
2022-11-06T13:08:25.668Z,35.4
2022-11-06T13:14:04.850Z,35.4
2022-11-06T13:19:43.078Z,35.3
2022-11-06T13:25:20.832Z,35.3
2022-11-06T13:31:00.523Z,35.3
2022-11-06T13:36:37.827Z,35.3
2022-11-06T13:41:59.741Z,35.3
2022-11-06T13:47:37.977Z,35.2
2022-11-06T13:52:34.211Z,35.2
2022-11-06T13:57:57.989Z,35.2
2022-11-06T14:03:39.016Z,35.1
2022-11-06T14:09:23.130Z,35.3
2022-11-06T14:15:00.694Z,35.3
2022-11-06T14:20:40.355Z,35.3
2022-11-06T14:26:23.408Z,35.3
2022-11-06T14:32:36.062Z,35.3
2022-11-06T14:38:03.728Z,35.3
2022-11-06T14:43:45.823Z,35.2
2022-11-06T14:49:25.997Z,35.2
2022-11-06T14:55:05.356Z,35.2
2022-11-06T15:00:45.053Z,35.1
2022-11-06T15:06:28.083Z,35.1
2022-11-06T15:12:37.681Z,35.1
2022-11-06T15:18:06.018Z,35.1
2022-11-06T15:28:35.093Z,35
2022-11-06T15:33:57.892Z,35
2022-11-06T15:39:19.619Z,34.9
2022-11-06T15:45:04.772Z,35
2022-11-06T15:50:42.353Z,35.1
2022-11-06T15:56:29.706Z,35.1
2022-11-06T16:02:12.346Z,35.1
2022-11-06T16:07:56.189Z,35
2022-11-06T16:13:40.565Z,35
2022-11-06T16:19:23.074Z,34.4
2022-11-06T16:24:35.334Z,34.4
2022-11-06T16:35:11.962Z,34.4
2022-11-06T16:47:04.991Z,34.4
2022-11-06T16:52:28.176Z,34.4
2022-11-06T16:57:50.934Z,34.3
2022-11-06T17:03:18.369Z,34.3
2022-11-06T17:08:41.230Z,34.3
2022-11-06T17:14:18.933Z,34.3
2022-11-06T17:19:41.019Z,34.3
2022-11-06T17:25:27.061Z,34.3
2022-11-06T17:41:50.118Z,34.2
2022-11-06T17:57:52.982Z,34.1
2022-11-06T18:04:08.359Z,34
2022-11-06T18:09:45.092Z,34
2022-11-06T18:15:23.057Z,33.9
2022-11-06T18:20:14.004Z,33.9
2022-11-06T18:24:49.779Z,33.9
2022-11-06T18:30:16.968Z,33.9
2022-11-06T18:35:59.493Z,33.8
2022-11-06T18:41:41.224Z,33.8
2022-11-06T18:47:03.355Z,33.7
2022-11-06T18:53:28.584Z,33.7
2022-11-06T18:59:11.970Z,33.6
2022-11-06T19:04:58.664Z,33.6
2022-11-06T19:16:03.316Z,33.6
2022-11-06T19:21:38.813Z,33.3
2022-11-06T19:27:37.938Z,33.2
2022-11-06T19:33:22.168Z,33.1
2022-11-06T19:38:46.368Z,32.9
2022-11-06T19:44:23.874Z,32.8
2022-11-06T19:50:07.694Z,32.9
2022-11-06T19:58:01.133Z,32.8
2022-11-06T20:03:24.133Z,32.8
2022-11-06T20:08:53.473Z,32.8
2022-11-06T20:14:32.005Z,32.7
2022-11-06T20:19:55.218Z,32.6
2022-11-06T20:25:24.526Z,32.6
2022-11-06T20:31:08.148Z,32.6
2022-11-06T20:36:49.144Z,32.5
2022-11-06T20:42:29.935Z,32.5
2022-11-06T20:47:53.744Z,32.4
2022-11-06T20:54:07.435Z,32.4
2022-11-06T20:59:51.471Z,32.4
2022-11-06T21:04:59.579Z,32.3
2022-11-06T21:10:21.764Z,32.3
2022-11-06T21:15:44.208Z,32.3
2022-11-06T21:21:11.918Z,32.3
2022-11-06T21:32:05.396Z,32.1
2022-11-06T21:37:35.322Z,32.1
2022-11-06T21:43:17.640Z,32.1
2022-11-06T21:48:50.475Z,32
2022-11-06T21:53:57.527Z,32
2022-11-06T22:04:46.714Z,31.9
2022-11-06T22:10:30.914Z,31.9
2022-11-06T22:33:56.125Z,31.8
2022-11-06T22:39:33.876Z,31.7
2022-11-06T22:45:17.594Z,31.7
2022-11-06T22:50:55.562Z,31.6
2022-11-06T22:56:17.583Z,31.6
2022-11-06T23:01:58.913Z,31.5
2022-11-06T23:07:37.358Z,31.5
2022-11-06T23:13:16.720Z,31.4
2022-11-06T23:18:56.213Z,31.4
2022-11-06T23:24:03.159Z,31.4
2022-11-06T23:29:28.151Z,31.3
2022-11-06T23:40:04.802Z,31.3
2022-11-06T23:45:11.440Z,31.2
2022-11-06T23:50:36.335Z,31.2
2022-11-06T23:56:14.204Z,31.1
